Time;durP1;ratioP1;P1;durP2;ratioP2;P2;SDS_P1;SDS_P2;PMS_P1;PMS_P2;Temp;Humidity;BMP_temperature;BMP_pressure;BME280_temperature;BME280_humidity;BME280_pressure;Samples;Min_cycle;Max_cycle;Signal;HPM_P1;HPM_P2
2024/02/08 00:00:27;;;;;;;3.55;2.53;;;;;;;11.95;53.91;98844.63;4199172;33;34610;-82
2024/02/08 00:02:54;;;;;;;0.55;0.40;;;;;;;11.68;54.40;98836.66;4223194;33;33563;-82
2024/02/08 00:05:22;;;;;;;13.85;2.50;;;;;;;11.75;54.41;98837.09;4209075;33;34013;-82
2024/02/08 00:07:50;;;;;;;1.67;1.23;;;;;;;12.14;53.07;98828.41;4212472;33;31570;-81
2024/02/08 00:10:18;;;;;;;2.05;1.17;;;;;;;11.71;53.81;98825.03;4207781;33;33197;-81
2024/02/08 00:12:46;;;;;;;1.05;0.98;;;;;;;11.66;54.06;98822.66;4211531;33;33873;-82
2024/02/08 00:15:15;;;;;;;0.52;0.52;;;;;;;11.38;54.76;98823.56;4198619;33;33801;-82
2024/02/08 00:17:47;;;;;;;1.80;0.52;;;;;;;11.46;54.38;98818.66;4214706;33;33367;-81
2024/02/08 00:20:18;;;;;;;1.20;0.77;;;;;;;11.52;54.20;98826.19;4222497;33;33273;-81
2024/02/08 00:22:46;;;;;;;1.55;1.42;;;;;;;11.48;54.13;98822.03;4213267;33;34645;-82
2024/02/08 00:25:14;;;;;;;1.77;1.42;;;;;;;11.40;54.29;98829.63;4201305;33;33807;-82
2024/02/08 00:27:42;;;;;;;4.85;1.10;;;;;;;11.21;54.78;98831.69;4225151;33;33630;-82
2024/02/08 00:30:10;;;;;;;3.17;1.50;;;;;;;11.21;55.02;98834.34;4213244;33;32047;-82
2024/02/08 00:32:38;;;;;;;1.30;1.05;;;;;;;11.40;54.08;98821.69;4225749;33;33780;-82
2024/02/08 00:35:06;;;;;;;4.47;1.37;;;;;;;11.28;54.46;98817.16;4213078;33;33929;-82
2024/02/08 00:37:38;;;;;;;0.80;0.80;;;;;;;11.21;54.82;98815.84;4211912;33;33770;-82
2024/02/08 00:40:08;;;;;;;3.67;2.15;;;;;;;11.24;54.75;98818.28;4224337;33;33641;-82
2024/02/08 00:42:36;;;;;;;1.00;1.00;;;;;;;11.05;55.27;98826.50;4213218;33;35822;-83
2024/02/08 00:45:04;;;;;;;2.75;1.30;;;;;;;11.13;54.84;98824.22;4191047;33;33017;-83
2024/02/08 00:47:32;;;;;;;0.10;0.10;;;;;;;11.07;54.78;98823.78;4223868;33;33904;-83
2024/02/08 00:50:00;;;;;;;2.22;1.73;;;;;;;11.11;54.86;98825.25;4204000;33;33509;-83
2024/02/08 00:52:28;;;;;;;2.33;1.12;;;;;;;11.02;54.73;98822.25;4209987;33;33550;-83
2024/02/08 00:54:55;;;;;;;0.98;0.95;;;;;;;11.03;54.83;98826.59;4223561;33;34671;-83
2024/02/08 00:57:23;;;;;;;2.30;1.70;;;;;;;11.37;54.05;98818.38;4214753;33;34867;-83
2024/02/08 00:59:51;;;;;;;1.45;1.35;;;;;;;11.03;54.79;98813.38;4225185;33;34358;-83
2024/02/08 01:02:19;;;;;;;3.53;2.08;;;;;;;10.95;55.08;98818.28;4223208;33;33887;-83
2024/02/08 01:04:48;;;;;;;4.85;1.98;;;;;;;11.00;55.24;98818.84;4222598;33;33206;-83
2024/02/08 01:07:17;;;;;;;0.80;0.75;;;;;;;10.90;55.41;98823.00;4228617;33;34062;-83
2024/02/08 01:09:45;;;;;;;1.45;1.35;;;;;;;10.82;55.58;98827.87;4200986;33;33833;-83
2024/02/08 01:12:13;;;;;;;0.70;0.70;;;;;;;10.81;55.70;98826.19;4211285;33;33418;-83
2024/02/08 01:14:42;;;;;;;2.58;2.37;;;;;;;10.59;56.19;98823.16;4202399;33;33636;-83
2024/02/08 01:17:10;;;;;;;1.17;1.08;;;;;;;10.52;56.31;98818.22;4212313;33;33237;-83
2024/02/08 01:19:37;;;;;;;1.12;1.12;;;;;;;10.89;55.37;98815.16;4212443;33;32800;-83
2024/02/08 01:22:05;;;;;;;1.77;1.67;;;;;;;10.62;55.30;98818.50;4210422;33;33438;-83
2024/02/08 01:24:34;;;;;;;5.65;2.40;;;;;;;10.39;56.54;98817.22;4210312;33;32199;-83
2024/02/08 01:27:04;;;;;;;2.37;0.93;;;;;;;10.38;56.53;98815.53;4210567;33;33590;-83
2024/02/08 01:29:32;;;;;;;1.25;1.12;;;;;;;10.24;57.11;98818.97;4200229;33;32719;-83
2024/02/08 01:32:00;;;;;;;1.15;1.10;;;;;;;10.38;55.90;98810.25;4224362;33;33592;-83
2024/02/08 01:34:28;;;;;;;9.15;1.70;;;;;;;10.11;57.06;98812.69;4225506;33;34856;-82
2024/02/08 01:36:59;;;;;;;4.50;1.70;;;;;;;10.11;57.16;98804.78;4214698;33;34885;-82
2024/02/08 01:39:28;;;;;;;0.85;0.85;;;;;;;10.43;56.44;98800.28;4214431;33;33492;-82
2024/02/08 01:41:58;;;;;;;1.45;1.42;;;;;;;10.35;56.38;98793.75;4223429;33;32620;-82
2024/02/08 01:44:25;;;;;;;1.95;1.75;;;;;;;10.10;57.35;98797.78;4213903;33;32617;-82
2024/02/08 01:46:53;;;;;;;0.47;0.37;;;;;;;10.10;57.46;98789.87;4216312;33;32717;-82
2024/02/08 01:49:27;;;;;;;1.83;1.73;;;;;;;10.08;57.67;98786.50;4218000;33;33014;-82
2024/02/08 01:52:01;;;;;;;1.02;1.00;;;;;;;10.13;57.56;98788.84;4215617;33;32889;-82
2024/02/08 01:54:29;;;;;;;1.48;1.37;;;;;;;10.05;57.81;98783.16;4200658;33;33789;-82
2024/02/08 01:56:59;;;;;;;0.75;0.75;;;;;;;10.51;56.48;98781.34;4200608;33;33145;-82
2024/02/08 01:59:28;;;;;;;3.58;1.52;;;;;;;10.12;57.40;98766.06;4201103;33;33711;-82
2024/02/08 02:01:58;;;;;;;0.90;0.90;;;;;;;9.92;58.01;98773.34;4199862;33;33516;-82
2024/02/08 02:04:26;;;;;;;1.58;1.15;;;;;;;9.94;58.54;98770.59;4210975;33;34272;-82
2024/02/08 02:06:53;;;;;;;2.47;1.48;;;;;;;10.10;58.02;98776.69;4214673;33;33061;-82
2024/02/08 02:09:24;;;;;;;1.35;1.25;;;;;;;10.05;58.43;98775.25;4200073;33;34282;-82
2024/02/08 02:12:02;;;;;;;0.60;0.60;;;;;;;10.09;57.84;98767.06;4214122;33;34063;-82
2024/02/08 02:14:31;;;;;;;1.45;1.35;;;;;;;10.11;57.86;98764.34;4225890;33;32999;-81
2024/02/08 02:17:10;;;;;;;1.15;1.12;;;;;;;10.32;57.47;98767.56;4215926;33;32982;-82
2024/02/08 02:19:39;;;;;;;0.93;0.93;;;;;;;10.43;56.81;98776.53;4221012;33;31990;-82
2024/02/08 02:22:10;;;;;;;0.50;0.50;;;;;;;10.18;57.64;98770.97;4237003;33;33826;-82
2024/02/08 02:24:42;;;;;;;0.22;0.17;;;;;;;10.21;57.75;98773.44;4223510;33;34736;-82
2024/02/08 02:27:11;;;;;;;1.15;1.08;;;;;;;10.21;57.79;98771.66;4217301;33;34451;-82
2024/02/08 02:29:39;;;;;;;1.35;1.23;;;;;;;10.11;58.28;98766.97;4211227;33;32472;-82
2024/02/08 02:32:11;;;;;;;0.98;0.98;;;;;;;10.20;57.87;98771.72;4212480;33;33784;-82
2024/02/08 02:34:41;;;;;;;2.30;1.55;;;;;;;10.22;58.02;98773.34;4212855;33;33887;-81
2024/02/08 02:37:11;;;;;;;0.32;0.32;;;;;;;10.21;57.96;98769.00;4200521;33;33479;-82
2024/02/08 02:39:39;;;;;;;1.52;1.33;;;;;;;10.42;57.22;98784.53;4199922;33;33475;-81
2024/02/08 02:42:07;;;;;;;0.45;0.45;;;;;;;10.42;56.81;98779.25;4226961;33;33417;-81
2024/02/08 02:44:34;;;;;;;0.50;0.50;;;;;;;10.17;57.61;98780.69;4201284;33;33885;-82
2024/02/08 02:47:06;;;;;;;0.57;0.57;;;;;;;10.17;57.90;98771.91;4210957;33;33506;-81
2024/02/08 02:49:36;;;;;;;0.30;0.30;;;;;;;10.10;58.08;98779.31;4200567;33;32826;-82
2024/02/08 02:52:07;;;;;;;2.12;1.42;;;;;;;10.17;58.19;98780.69;4227168;33;34189;-81
2024/02/08 02:54:36;;;;;;;2.03;1.37;;;;;;;10.27;57.91;98773.09;4222714;33;35210;-81
2024/02/08 02:57:04;;;;;;;1.15;1.10;;;;;;;10.60;56.42;98772.03;4209203;33;34604;-81
2024/02/08 02:59:32;;;;;;;1.42;1.33;;;;;;;9.98;59.00;98787.97;4223192;33;32808;-81
2024/02/08 03:02:01;;;;;;;2.00;0.88;;;;;;;10.31;57.78;98785.19;4221009;33;34972;-85
2024/02/08 03:04:30;;;;;;;0.52;0.35;;;;;;;10.47;57.41;98788.59;4210427;33;33656;-83
2024/02/08 03:06:58;;;;;;;0.55;0.55;;;;;;;10.57;56.86;98783.63;4223452;33;34192;-83
2024/02/08 03:09:30;;;;;;;1.02;1.02;;;;;;;10.15;58.08;98787.81;4212036;33;33632;-83
2024/02/08 03:11:58;;;;;;;0.40;0.40;;;;;;;10.05;58.44;98791.09;4225366;33;32696;-83
2024/02/08 03:14:27;;;;;;;0.37;0.35;;;;;;;9.98;58.59;98794.06;4211661;33;33995;-82
2024/02/08 03:17:01;;;;;;;1.02;0.43;;;;;;;10.16;58.45;98788.66;4201155;33;34522;-83
2024/02/08 03:19:35;;;;;;;1.50;0.37;;;;;;;10.41;57.37;98796.03;4213160;33;34596;-83
2024/02/08 03:22:07;;;;;;;0.57;0.57;;;;;;;10.06;58.29;98798.03;4217584;33;34705;-82
2024/02/08 03:24:36;;;;;;;0.93;0.75;;;;;;;10.07;58.45;98799.78;4200964;33;33339;-83
2024/02/08 03:27:05;;;;;;;0.90;0.90;;;;;;;10.05;58.68;98802.47;4199812;33;33580;-83
2024/02/08 03:29:36;;;;;;;1.67;1.10;;;;;;;10.35;57.63;98799.03;4201041;33;33149;-82
2024/02/08 03:32:04;;;;;;;0.25;0.25;;;;;;;10.13;58.12;98796.78;4205330;33;32521;-82
2024/02/08 03:34:35;;;;;;;0.20;0.20;;;;;;;10.14;58.47;98795.81;4209059;33;34113;-82
2024/02/08 03:37:06;;;;;;;1.62;1.52;;;;;;;10.09;58.60;98797.88;4214610;33;33070;-82
2024/02/08 03:39:35;;;;;;;3.40;1.75;;;;;;;10.22;58.15;98801.53;4214016;33;33655;-83
2024/02/08 03:42:06;;;;;;;0.55;0.55;;;;;;;10.20;58.13;98796.31;4201692;33;32422;-83
2024/02/08 03:44:34;;;;;;;0.40;0.30;;;;;;;10.14;58.50;98795.81;4199088;33;34146;-82
2024/02/08 03:47:07;;;;;;;0.55;0.47;;;;;;;10.20;58.15;98795.47;4209328;33;33636;-82
2024/02/08 03:49:37;;;;;;;0.75;0.75;;;;;;;10.21;58.19;98794.53;4224110;33;33900;-82
2024/02/08 03:52:08;;;;;;;0.00;0.00;;;;;;;10.28;58.05;98795.91;4224774;33;33763;-82
2024/02/08 03:54:37;;;;;;;1.70;1.37;;;;;;;10.27;58.23;98799.50;4225280;33;33913;-82
2024/02/08 03:57:05;;;;;;;0.37;0.37;;;;;;;10.30;58.46;98793.16;4224139;33;34195;-82
2024/02/08 03:59:40;;;;;;;0.73;0.65;;;;;;;10.37;57.74;98787.44;4215058;33;32033;-82
2024/02/08 04:02:09;;;;;;;0.75;0.75;;;;;;;10.29;58.46;98789.69;4221029;33;34118;-81
2024/02/08 04:04:59;;;;;;;2.28;1.87;;;;;;;10.36;58.17;98793.69;4214816;33;34229;-82
2024/02/08 04:07:45;;;;;;;0.80;0.80;;;;;;;10.31;59.38;98795.75;4203032;33;32186;-81
2024/02/08 04:10:28;;;;;;;3.03;1.27;;;;;;;10.23;59.84;98795.28;4216083;33;35248;-82
2024/02/08 04:54:42;;;;;;;2.58;1.73;;;;;;;10.39;59.15;98777.66;4214727;33;32929;-82
2024/02/08 04:57:10;;;;;;;2.83;1.48;;;;;;;10.31;59.43;98782.53;4222291;33;33589;-82
2024/02/08 04:59:42;;;;;;;6.82;2.50;;;;;;;10.65;58.50;98781.37;4222090;33;34160;-82
2024/02/08 05:02:10;;;;;;;;;;;;;;;10.44;58.98;98791.44;4225003;33;35034;-82
2024/02/08 05:04:38;;;;;;;0.32;0.32;;;;;;;10.44;59.01;98804.63;4213161;33;33648;-82
2024/02/08 05:07:06;;;;;;;2.30;0.65;;;;;;;10.40;59.48;98811.03;4212343;33;34057;-83
2024/02/08 05:09:35;;;;;;;0.10;0.10;;;;;;;10.44;59.33;98820.47;4204455;33;34076;-83
2024/02/08 05:12:05;;;;;;;5.68;2.17;;;;;;;10.52;59.24;98818.22;4200228;33;34057;-82
2024/02/08 05:14:35;;;;;;;2.28;1.37;;;;;;;10.47;59.30;98811.50;4202654;33;33742;-83
2024/02/08 05:17:03;;;;;;;1.75;0.75;;;;;;;10.35;59.53;98810.47;4223450;33;33629;-82
2024/02/08 05:19:30;;;;;;;2.08;1.37;;;;;;;10.45;59.63;98816.88;4224741;33;33048;-82
2024/02/08 05:21:58;;;;;;;1.45;1.12;;;;;;;10.59;59.34;98812.59;4215196;33;33928;-83
2024/02/08 05:24:30;;;;;;;1.17;1.08;;;;;;;10.69;58.99;98819.03;4210487;33;33630;-83
2024/02/08 05:26:59;;;;;;;6.93;1.17;;;;;;;11.12;57.44;98817.25;4215012;33;34516;-82
2024/02/08 05:29:28;;;;;;;2.92;1.35;;;;;;;11.08;57.33;98809.63;4200058;33;32219;-82
2024/02/08 05:31:58;;;;;;;0.22;0.22;;;;;;;11.11;57.22;98810.28;4213269;33;34081;-82
2024/02/08 05:34:25;;;;;;;1.02;0.93;;;;;;;10.85;57.63;98811.84;4224408;33;32423;-82
2024/02/08 05:36:55;;;;;;;6.50;2.47;;;;;;;10.57;58.64;98811.81;4214120;33;34285;-83
2024/02/08 05:39:24;;;;;;;4.85;1.42;;;;;;;10.56;58.76;98807.47;4223176;33;33814;-82
2024/02/08 05:41:55;;;;;;;1.27;0.50;;;;;;;10.51;58.76;98813.88;4229038;33;34175;-82
2024/02/08 05:44:32;;;;;;;1.23;1.12;;;;;;;10.50;58.83;98809.53;4218023;33;32348;-82
2024/02/08 05:47:06;;;;;;;1.62;1.05;;;;;;;10.47;58.65;98807.06;4208791;33;34124;-81
2024/02/08 05:49:36;;;;;;;0.25;0.25;;;;;;;10.52;58.53;98817.38;4200170;33;33463;-82
2024/02/08 05:52:05;;;;;;;1.10;1.02;;;;;;;10.48;58.53;98811.41;4212528;33;34104;-81
2024/02/08 05:54:40;;;;;;;0.37;0.37;;;;;;;10.50;58.83;98808.69;4201762;33;33578;-81
2024/02/08 05:57:10;;;;;;;4.43;1.37;;;;;;;10.46;58.66;98818.59;4224190;33;33101;-81
2024/02/08 05:59:40;;;;;;;1.40;1.30;;;;;;;10.41;59.24;98814.53;4229546;33;32239;-81
2024/02/08 06:02:22;;;;;;;0.80;0.80;;;;;;;10.46;58.80;98821.22;4223046;33;33430;-82
2024/02/08 06:04:59;;;;;;;1.52;0.30;;;;;;;10.50;58.85;98828.03;4225128;33;33431;-82
2024/02/08 06:07:30;;;;;;;0.80;0.80;;;;;;;10.48;58.46;98827.25;4222050;33;32835;-84
2024/02/08 06:10:22;;;;;;;1.35;0.88;;;;;;;10.50;58.46;98825.38;4203007;33;34283;-82
2024/02/08 06:12:59;;;;;;;0.55;0.55;;;;;;;10.53;58.50;98821.69;4225633;33;32183;-83
2024/02/08 06:15:33;;;;;;;4.90;2.97;;;;;;;10.52;58.48;98812.09;4213172;33;32445;-83
2024/02/08 06:18:05;;;;;;;1.00;0.62;;;;;;;10.45;58.69;98822.16;4214686;33;34617;-82
2024/02/08 06:20:33;;;;;;;0.70;0.70;;;;;;;10.34;58.62;98816.66;4200560;33;33996;-82
2024/02/08 06:23:23;;;;;;;0.20;0.20;;;;;;;10.29;58.83;98825.78;4212705;33;34301;-82
2024/02/08 06:28:52;;;;;;;0.60;0.60;;;;;;;10.37;58.83;98831.47;4214955;33;33518;-83
2024/02/08 06:31:29;;;;;;;1.27;0.98;;;;;;;10.41;58.86;98836.47;4223683;33;35953;-83
2024/02/08 06:34:10;;;;;;;1.87;0.65;;;;;;;10.44;58.51;98838.06;4213161;33;35054;-83
2024/02/08 06:36:58;;;;;;;0.45;0.25;;;;;;;10.46;58.49;98834.41;4225471;33;34273;-83
2024/02/08 06:39:33;;;;;;;0.40;0.30;;;;;;;10.45;58.48;98847.72;4213677;33;33826;-83
2024/02/08 06:42:29;;;;;;;1.00;0.90;;;;;;;10.34;58.76;98845.66;4208230;33;34767;-83
2024/02/08 06:45:24;;;;;;;1.10;1.10;;;;;;;10.39;59.23;98854.16;4212080;33;32933;-83
2024/02/08 06:47:56;;;;;;;3.17;2.72;;;;;;;10.38;59.13;98857.75;4216299;33;33596;-82
2024/02/08 07:38:08;;;;;;;2.97;1.80;;;;;;;11.44;58.00;98891.91;4216320;33;34564;-81
2024/02/08 07:40:36;;;;;;;1.62;1.52;;;;;;;11.49;58.04;98892.47;4224254;33;32124;-81
2024/02/08 07:45:44;;;;;;;1.50;1.40;;;;;;;11.51;58.05;98895.87;4212874;33;33731;-81
2024/02/08 07:48:13;;;;;;;3.17;2.55;;;;;;;11.60;57.81;98890.97;4221632;33;33288;-81
2024/02/08 07:50:47;;;;;;;3.08;1.95;;;;;;;11.62;57.94;98889.91;4211586;33;32419;-81
2024/02/08 07:53:35;;;;;;;1.77;1.67;;;;;;;11.69;57.80;98893.03;4203409;33;32305;-81
2024/02/08 07:58:53;;;;;;;0.82;0.75;;;;;;;11.92;57.44;98876.59;4204123;33;34877;-81
2024/02/08 08:01:21;;;;;;;3.75;1.42;;;;;;;12.13;56.69;98884.09;4190299;33;33202;-81
2024/02/08 08:03:49;;;;;;;9.70;1.95;;;;;;;12.34;55.87;98885.31;4225432;33;33027;-81
2024/02/08 08:06:17;;;;;;;1.60;1.50;;;;;;;12.46;55.48;98881.88;4213419;33;32855;-81
2024/02/08 08:08:57;;;;;;;1.55;1.45;;;;;;;12.28;55.94;98880.44;4211857;33;34508;-81
2024/02/08 08:11:29;;;;;;;2.12;1.25;;;;;;;12.26;56.05;98885.00;4205731;33;34813;-81
2024/02/08 08:19:12;;;;;;;1.80;1.70;;;;;;;12.01;57.32;98878.66;4215940;33;32393;-81
2024/02/08 08:22:03;;;;;;;0.65;0.47;;;;;;;12.28;56.97;98877.78;4202348;33;33360;-82
2024/02/08 08:24:53;;;;;;;4.78;1.40;;;;;;;12.34;56.29;98871.25;4220590;33;32937;-81
2024/02/08 08:27:26;;;;;;;2.10;0.82;;;;;;;12.35;55.71;98868.53;4230122;33;32913;-81
2024/02/08 08:29:58;;;;;;;0.40;0.40;;;;;;;12.73;55.42;98873.91;4225707;33;33915;-81
2024/02/08 08:35:37;;;;;;;2.90;1.33;;;;;;;12.63;55.42;98871.97;4223011;33;33169;-82
2024/02/08 08:40:49;;;;;;;1.30;0.82;;;;;;;13.17;54.40;98870.03;4213729;33;34718;-81
2024/02/08 08:43:19;;;;;;;4.50;1.40;;;;;;;13.35;53.95;98880.34;4215527;33;34343;-81
2024/02/08 08:45:50;;;;;;;1.30;1.20;;;;;;;13.11;54.16;98877.56;4235718;33;33572;-81
2024/02/08 08:48:20;;;;;;;0.47;0.47;;;;;;;13.27;54.02;98880.87;4202544;33;33757;-81
2024/02/08 08:50:54;;;;;;;2.28;1.40;;;;;;;13.67;53.17;98875.41;4212714;33;34432;-81
2024/02/08 08:53:41;;;;;;;1.15;1.08;;;;;;;13.73;52.89;98877.66;4213229;33;34505;-82
2024/02/08 08:56:12;;;;;;;0.80;0.50;;;;;;;13.78;53.35;98867.56;4225349;33;33325;-81
2024/02/08 08:58:41;;;;;;;2.03;1.60;;;;;;;14.17;51.47;98865.63;4199863;33;33892;-82
2024/02/08 09:01:18;;;;;;;0.73;0.73;;;;;;;14.14;51.81;98868.50;4211560;33;33344;-81
2024/02/08 09:04:10;;;;;;;4.03;1.75;;;;;;;14.27;51.49;98861.31;4218355;33;32175;-81
2024/02/08 09:06:41;;;;;;;1.48;1.37;;;;;;;13.95;50.51;98864.50;4213686;33;32822;-81
2024/02/08 09:09:27;;;;;;;1.77;0.93;;;;;;;14.05;50.42;98860.25;4214277;33;33935;-82
2024/02/08 09:11:58;;;;;;;0.73;0.73;;;;;;;14.02;50.02;98857.81;4236094;33;34001;-81
2024/02/08 09:14:30;;;;;;;3.37;2.50;;;;;;;13.93;50.37;98866.44;4212932;33;34692;-82
2024/02/08 09:16:59;;;;;;;1.10;0.43;;;;;;;14.49;49.72;98861.47;4200833;33;34363;-82
2024/02/08 09:19:47;;;;;;;6.55;1.60;;;;;;;14.71;49.26;98860.69;4204939;33;33616;-81
2024/02/08 09:22:17;;;;;;;1.70;1.58;;;;;;;14.66;48.93;98854.03;4200297;33;33247;-81
2024/02/08 09:24:46;;;;;;;0.68;0.68;;;;;;;14.56;49.34;98857.37;4213272;33;32051;-83
2024/02/08 09:27:19;;;;;;;1.27;1.17;;;;;;;14.70;48.61;98852.84;4213974;33;33580;-84
2024/02/08 09:29:55;;;;;;;1.85;1.15;;;;;;;14.02;49.94;98864.94;4223074;33;32456;-82
2024/02/08 09:32:46;;;;;;;1.48;1.33;;;;;;;14.62;49.27;98863.19;4213061;33;34376;-83
2024/02/08 09:35:16;;;;;;;0.10;0.10;;;;;;;14.86;48.82;98861.34;4215874;33;32833;-83
2024/02/08 09:37:48;;;;;;;8.98;0.80;;;;;;;15.16;47.94;98870.59;4218337;33;33673;-84
2024/02/08 09:43:11;;;;;;;;;;;;;;;15.20;46.64;98856.94;4214948;33;34759;-83
2024/02/08 09:48:15;;;;;;;0.85;0.45;;;;;;;15.71;45.14;98856.47;4211148;33;33562;-83
2024/02/08 09:50:50;;;;;;;3.47;1.10;;;;;;;15.98;44.43;98861.41;4223066;33;32926;-83
2024/02/08 09:53:29;;;;;;;0.47;0.47;;;;;;;16.00;44.47;98854.16;4204676;33;33633;-83
2024/02/08 09:55:59;;;;;;;2.75;1.25;;;;;;;15.86;44.66;98846.44;4213475;33;32788;-83
2024/02/08 09:58:33;;;;;;;2.08;0.82;;;;;;;15.90;44.36;98847.03;4212051;33;34318;-82
2024/02/08 10:01:43;;;;;;;4.62;0.68;;;;;;;15.80;45.48;98852.25;4213224;33;33627;-83
2024/02/08 10:04:14;;;;;;;0.35;0.35;;;;;;;15.59;45.75;98850.31;4200795;33;33312;-83
2024/02/08 10:09:40;;;;;;;2.62;0.32;;;;;;;16.78;44.22;98854.88;4215840;33;33993;-83
2024/02/08 10:12:18;;;;;;;1.20;0.93;;;;;;;17.18;43.02;98856.81;4203703;33;33571;-83
2024/02/08 10:14:54;;;;;;;0.20;0.17;;;;;;;17.30;42.37;98861.94;4218482;33;34746;-83
2024/02/08 10:17:25;;;;;;;0.52;0.52;;;;;;;17.67;40.72;98854.25;4208467;33;33173;-83
2024/02/08 10:28:23;;;;;;;0.40;0.40;;;;;;;17.46;40.93;98845.44;4215921;33;34435;-83
2024/02/08 10:30:59;;;;;;;0.10;0.10;;;;;;;18.00;39.94;98825.56;4202417;33;31923;-83
2024/02/08 10:33:37;;;;;;;0.55;0.55;;;;;;;17.81;39.60;98831.69;4203023;33;32419;-83
2024/02/08 10:36:15;;;;;;;2.40;0.60;;;;;;;18.04;39.72;98828.78;4211510;33;33760;-83
2024/02/08 10:38:55;;;;;;;0.57;0.57;;;;;;;18.03;39.15;98817.25;4212712;33;34166;-83
2024/02/08 10:41:37;;;;;;;1.00;0.35;;;;;;;18.20;39.90;98806.88;4211767;33;32903;-83
2024/02/08 10:44:06;;;;;;;0.20;0.20;;;;;;;18.11;40.09;98793.38;4233848;33;34033;-83
2024/02/08 10:46:42;;;;;;;1.55;0.57;;;;;;;18.27;38.83;98800.81;4216070;33;33701;-83
2024/02/08 10:49:10;;;;;;;1.12;0.85;;;;;;;18.12;39.14;98792.38;4223458;33;34121;-83
2024/02/08 10:51:43;;;;;;;2.00;0.95;;;;;;;18.73;38.28;98790.41;4214824;33;33733;-83
2024/02/08 10:54:15;;;;;;;2.45;0.85;;;;;;;18.82;37.74;98802.94;4203467;33;33034;-83
2024/02/08 10:56:45;;;;;;;0.10;0.10;;;;;;;18.66;37.55;98787.47;4204436;33;33602;-83
2024/02/08 10:59:39;;;;;;;0.20;0.20;;;;;;;18.74;37.84;98784.09;4214655;33;33114;-82
2024/02/08 11:02:08;;;;;;;1.12;0.55;;;;;;;17.81;39.81;98783.63;4201831;33;33364;-83
2024/02/08 11:04:41;;;;;;;0.20;0.20;;;;;;;18.08;39.49;98780.28;4210254;33;33206;-83
2024/02/08 11:07:22;;;;;;;0.20;0.20;;;;;;;18.33;38.58;98781.56;4205184;33;32512;-83
2024/02/08 11:09:52;;;;;;;0.32;0.32;;;;;;;18.02;39.59;98783.50;4223556;33;33499;-83
2024/02/08 11:12:23;;;;;;;0.30;0.25;;;;;;;18.37;38.72;98779.44;4225851;33;33823;-83
2024/02/08 11:14:56;;;;;;;0.28;0.28;;;;;;;18.71;37.96;98774.53;4224029;33;33281;-83
2024/02/08 11:17:27;;;;;;;0.98;0.62;;;;;;;18.76;37.86;98772.28;4234362;33;33917;-83
2024/02/08 11:19:58;;;;;;;0.22;0.22;;;;;;;18.68;37.52;98778.31;4224141;33;32793;-83
2024/02/08 11:22:40;;;;;;;1.30;0.60;;;;;;;19.02;36.74;98764.44;4210285;33;33604;-83
2024/02/08 11:25:19;;;;;;;1.50;0.60;;;;;;;19.38;36.00;98768.13;4215184;33;33463;-83
2024/02/08 11:27:52;;;;;;;0.20;0.15;;;;;;;19.12;36.84;98767.91;4222089;33;34648;-83
2024/02/08 11:30:32;;;;;;;0.37;0.37;;;;;;;19.57;36.15;98771.69;4216181;33;33992;-83
2024/02/08 11:33:03;;;;;;;0.10;0.10;;;;;;;19.18;36.13;98767.38;4199443;33;33656;-84
2024/02/08 11:35:35;;;;;;;0.47;0.37;;;;;;;18.61;36.93;98763.81;4215211;33;34275;-83
2024/02/08 11:38:15;;;;;;;0.90;0.30;;;;;;;19.02;36.92;98767.13;4217331;33;33009;-83
2024/02/08 11:40:45;;;;;;;2.83;0.40;;;;;;;19.23;36.31;98760.69;4215193;33;33842;-83
2024/02/08 11:43:23;;;;;;;0.22;0.13;;;;;;;20.08;34.56;98755.03;4216216;33;32586;-83
2024/02/08 11:45:55;;;;;;;1.95;0.80;;;;;;;19.27;36.23;98749.56;4196201;33;32999;-83
2024/02/08 11:48:41;;;;;;;0.20;0.20;;;;;;;19.13;36.65;98753.59;4204590;33;35079;-83
2024/02/08 11:51:11;;;;;;;0.10;0.10;;;;;;;19.79;34.82;98749.84;4213717;33;33349;-83
2024/02/08 11:53:40;;;;;;;0.10;0.10;;;;;;;19.86;34.62;98739.41;4209731;33;32385;-83
2024/02/08 11:56:08;;;;;;;0.73;0.30;;;;;;;20.08;34.24;98743.44;4223559;33;33565;-83
2024/02/08 11:58:47;;;;;;;2.08;1.40;;;;;;;19.91;34.85;98742.47;4222434;33;34734;-83
2024/02/08 12:01:17;;;;;;;0.80;0.40;;;;;;;19.86;34.94;98744.75;4216050;33;34274;-83
2024/02/08 12:03:49;;;;;;;0.55;0.52;;;;;;;20.06;34.71;98735.56;4200552;33;33098;-82
2024/02/08 12:06:21;;;;;;;0.37;0.37;;;;;;;19.73;35.45;98733.56;4200665;33;33001;-82
2024/02/08 12:09:02;;;;;;;0.57;0.30;;;;;;;18.81;36.80;98726.38;4224657;33;32613;-82
2024/02/08 12:11:31;;;;;;;11.02;2.08;;;;;;;18.82;37.21;98728.91;4202589;33;33901;-82
2024/02/08 12:14:04;;;;;;;1.17;0.25;;;;;;;18.31;37.73;98734.59;4213889;33;32805;-82
2024/02/08 12:16:47;;;;;;;0.88;0.80;;;;;;;18.96;37.26;98727.59;4215493;33;34627;-83
2024/02/08 12:19:16;;;;;;;8.52;1.37;;;;;;;18.91;36.79;98728.03;4202731;33;33236;-83
2024/02/08 12:21:54;;;;;;;1.25;0.93;;;;;;;18.47;37.16;98726.84;4209503;33;32966;-82
2024/02/08 12:24:23;;;;;;;1.73;1.37;;;;;;;18.26;37.19;98731.50;4205350;33;32741;-83
2024/02/08 12:26:58;;;;;;;1.70;0.60;;;;;;;18.49;37.21;98730.19;4213821;33;33958;-83
2024/02/08 12:29:26;;;;;;;0.65;0.45;;;;;;;18.89;36.33;98729.97;4227151;33;34806;-84
2024/02/08 12:31:54;;;;;;;0.90;0.90;;;;;;;18.72;36.19;98724.56;4226226;33;34495;-83
2024/02/08 12:34:31;;;;;;;5.00;1.42;;;;;;;18.23;37.37;98716.59;4227604;33;33545;-84
2024/02/08 12:37:06;;;;;;;1.15;0.60;;;;;;;18.86;36.51;98708.06;4223372;33;32682;-84
2024/02/08 12:39:38;;;;;;;0.55;0.55;;;;;;;19.07;36.54;98715.84;4225546;33;33909;-83
2024/02/08 12:42:06;;;;;;;0.43;0.43;;;;;;;18.89;36.06;98718.44;4225403;33;33376;-83
2024/02/08 12:44:36;;;;;;;1.87;0.52;;;;;;;18.83;36.54;98724.38;4221303;33;32559;-83
2024/02/08 12:47:06;;;;;;;2.90;0.90;;;;;;;19.18;35.57;98718.34;4211676;33;33202;-83
2024/02/08 12:49:34;;;;;;;0.22;0.22;;;;;;;19.01;36.21;98717.28;4202938;33;33178;-83
2024/02/08 12:52:03;;;;;;;1.77;1.30;;;;;;;19.57;35.84;98721.66;4201067;33;34137;-83
2024/02/08 12:54:33;;;;;;;0.73;0.73;;;;;;;19.18;36.32;98724.53;4203219;33;32664;-83
2024/02/08 12:57:10;;;;;;;0.80;0.50;;;;;;;18.95;36.59;98728.59;4203916;33;33947;-83
2024/02/08 12:59:40;;;;;;;4.70;0.68;;;;;;;18.53;37.51;98722.75;4217216;33;33257;-83
2024/02/08 13:02:16;;;;;;;3.83;0.77;;;;;;;17.72;38.81;98732.84;4213651;33;32957;-84
2024/02/08 13:04:46;;;;;;;0.52;0.35;;;;;;;17.84;39.03;98729.94;4224516;33;33738;-83
2024/02/08 13:07:19;;;;;;;0.43;0.43;;;;;;;17.99;38.16;98734.84;4199925;33;32742;-82
2024/02/08 13:09:47;;;;;;;1.90;0.77;;;;;;;17.57;39.30;98729.75;4222637;33;33681;-83
2024/02/08 13:12:20;;;;;;;1.85;0.98;;;;;;;17.46;39.55;98728.00;4225372;33;33303;-83
2024/02/08 13:14:48;;;;;;;2.25;1.83;;;;;;;17.58;39.45;98726.91;4215978;33;31991;-83
2024/02/08 13:17:21;;;;;;;1.42;0.85;;;;;;;17.65;39.42;98716.53;4214895;33;33507;-82
2024/02/08 13:19:50;;;;;;;0.70;0.70;;;;;;;17.15;40.66;98717.41;4216057;33;33397;-83
2024/02/08 13:22:23;;;;;;;0.90;0.57;;;;;;;17.29;40.53;98707.34;4209144;33;32515;-83
2024/02/08 13:24:52;;;;;;;0.22;0.20;;;;;;;17.50;40.09;98692.06;4204664;33;34289;-83
2024/02/08 13:27:25;;;;;;;5.47;1.12;;;;;;;17.82;39.75;98707.03;4216915;33;33088;-83
2024/02/08 13:29:53;;;;;;;4.78;1.77;;;;;;;17.77;39.42;98701.28;4197657;33;31838;-83
2024/02/08 13:32:29;;;;;;;1.45;1.05;;;;;;;18.02;39.04;98698.03;4225499;33;32632;-83
2024/02/08 13:35:00;;;;;;;2.62;0.98;;;;;;;18.30;38.96;98706.19;4205252;33;33624;-83
2024/02/08 13:37:29;;;;;;;0.35;0.35;;;;;;;17.74;39.01;98705.06;4217676;33;33043;-83
2024/02/08 13:40:03;;;;;;;0.52;0.40;;;;;;;17.46;39.32;98708.47;4204902;33;32959;-83
2024/02/08 13:42:32;;;;;;;0.80;0.73;;;;;;;17.46;39.40;98700.47;4219361;33;34888;-83
2024/02/08 13:45:24;;;;;;;1.23;1.12;;;;;;;17.97;38.61;98691.44;4197954;33;32951;-83
2024/02/08 13:47:56;;;;;;;1.87;1.70;;;;;;;17.89;38.26;98687.63;4217103;33;32478;-83
2024/02/08 13:50:28;;;;;;;0.55;0.55;;;;;;;17.80;38.64;98693.84;4197403;33;33821;-82
2024/02/08 13:53:01;;;;;;;0.70;0.70;;;;;;;17.64;38.52;98690.81;4216220;33;33097;-83
2024/02/08 13:55:32;;;;;;;5.93;1.87;;;;;;;17.52;38.07;98682.09;4202547;33;32502;-83
2024/02/08 13:58:06;;;;;;;3.20;1.73;;;;;;;17.88;37.65;98685.09;4216710;33;34297;-83
2024/02/08 14:00:35;;;;;;;1.37;1.27;;;;;;;17.94;37.49;98692.53;4216502;33;33958;-83
2024/02/08 14:03:04;;;;;;;0.82;0.82;;;;;;;17.62;37.84;98688.28;4203164;33;35117;-83